TimeEDT,TemperatureF,Dew PointF,Humidity,Sea Level PressureIn,VisibilityMPH,Wind Direction,Wind SpeedMPH,Gust SpeedMPH,PrecipitationIn,Events,Conditions,WindDirDegrees,DateUTC
12:01 AM,30.2,28.4,93,29.99,2.0,ESE,9.2,-,0.00,Snow,Light Snow,110,2013-04-13 04:01:00
12:07 AM,30.2,28.4,93,29.99,1.5,ESE,8.1,-,0.00,Snow,Light Snow,110,2013-04-13 04:07:00
12:12 AM,30.2,28.4,93,29.99,2.0,ESE,6.9,-,0.00,Snow,Light Snow,110,2013-04-13 04:12:00
12:16 AM,30.2,28.4,93,29.99,3.0,ESE,8.1,-,0.00,Snow,Light Snow,110,2013-04-13 04:16:00
12:41 AM,30.2,28.4,93,29.98,2.5,East,6.9,-,0.01,Snow,Light Snow,100,2013-04-13 04:41:00
12:50 AM,30.2,28.4,93,29.98,1.5,ESE,8.1,-,0.01,Snow,Light Snow,110,2013-04-13 04:50:00
12:53 AM,30.0,28.9,96,30.00,1.2,ESE,8.1,-,0.02,Snow,Light Snow,110,2013-04-13 04:53:00
1:01 AM,30.2,28.4,93,29.97,1.8,East,9.2,-,0.00,Snow,Light Snow,100,2013-04-13 05:01:00
1:05 AM,30.2,28.4,93,29.97,3.0,ESE,9.2,-,0.00,Snow,Light Snow,110,2013-04-13 05:05:00
1:26 AM,30.2,28.4,93,29.96,2.0,ESE,5.8,-,0.00,Snow,Light Snow,110,2013-04-13 05:26:00
1:36 AM,30.2,28.4,93,29.96,3.0,ESE,8.1,-,0.00,Snow,Light Snow,110,2013-04-13 05:36:00
1:53 AM,30.0,28.0,92,29.99,8.0,ESE,6.9,-,0.00,,Overcast,110,2013-04-13 05:53:00
2:13 AM,30.2,28.4,93,29.94,5.0,ESE,8.1,-,0.00,Snow,Light Snow,110,2013-04-13 06:13:00
2:42 AM,30.2,28.4,93,29.93,1.8,East,8.1,-,0.01,Snow,Light Snow,100,2013-04-13 06:42:00
2:47 AM,30.2,28.4,93,29.93,1.2,East,5.8,-,0.01,Snow,Light Snow,100,2013-04-13 06:47:00
2:53 AM,30.0,28.0,92,29.95,1.2,East,6.9,-,0.01,Snow,Light Snow,90,2013-04-13 06:53:00
3:04 AM,30.2,28.4,93,29.92,1.5,East,6.9,-,0.01,Snow,Light Snow,100,2013-04-13 07:04:00
3:09 AM,30.2,28.4,93,29.92,1.8,East,8.1,-,0.01,Snow,Light Snow,90,2013-04-13 07:09:00
3:18 AM,30.2,28.4,93,29.91,2.5,East,8.1,-,0.01,Snow,Light Snow,100,2013-04-13 07:18:00
3:25 AM,30.2,28.4,93,29.91,2.5,East,6.9,-,0.01,Snow,Light Snow,90,2013-04-13 07:25:00
3:33 AM,30.2,28.4,93,29.91,3.0,East,8.1,-,0.01,Snow,Light Snow,90,2013-04-13 07:33:00
3:53 AM,30.0,28.0,92,29.93,4.0,East,6.9,-,0.01,Snow,Light Snow,90,2013-04-13 07:53:00
4:01 AM,30.2,28.4,93,29.90,2.5,East,6.9,-,0.00,Snow,Light Snow,100,2013-04-13 08:01:00
4:06 AM,30.2,28.4,93,29.90,3.0,East,8.1,-,0.00,Snow,Light Snow,80,2013-04-13 08:06:00
4:53 AM,30.0,28.0,92,29.91,7.0,East,5.8,-,0.01,Snow,Light Snow,90,2013-04-13 08:53:00
5:53 AM,30.0,28.0,92,29.88,10.0,ENE,8.1,-,N/A,,Overcast,70,2013-04-13 09:53:00
6:53 AM,30.0,28.0,92,29.90,3.0,East,5.8,-,0.00,Snow,Light Snow,90,2013-04-13 10:53:00
7:00 AM,30.2,28.4,93,29.87,2.0,East,6.9,-,0.00,Snow,Light Snow,90,2013-04-13 11:00:00
7:14 AM,30.2,28.4,93,29.87,1.8,East,4.6,-,0.00,Snow,Light Snow,90,2013-04-13 11:14:00
7:17 AM,30.2,28.4,93,29.87,1.2,East,5.8,-,0.00,Snow,Light Snow,90,2013-04-13 11:17:00
7:46 AM,30.2,28.4,93,29.85,1.8,ENE,8.1,-,0.00,Snow,Light Snow,70,2013-04-13 11:46:00
7:53 AM,30.0,28.0,92,29.88,2.5,East,8.1,-,0.00,Snow,Light Snow,80,2013-04-13 11:53:00
7:59 AM,30.2,28.4,93,29.85,4.0,East,8.1,-,0.01,Snow,Light Snow,80,2013-04-13 11:59:00
8:28 AM,30.2,28.4,93,29.84,2.5,ENE,6.9,-,0.01,Snow,Light Snow,70,2013-04-13 12:28:00
8:32 AM,30.2,28.4,93,29.84,1.5,ENE,5.8,-,0.01,Snow,Light Snow,60,2013-04-13 12:32:00
8:40 AM,30.2,28.4,93,29.84,1.0,ENE,6.9,-,0.02,Snow,Light Snow,60,2013-04-13 12:40:00
8:53 AM,30.0,28.0,92,29.86,0.8,ENE,8.1,-,0.02,Snow,Light Snow,60,2013-04-13 12:53:00
9:19 AM,30.2,28.4,93,29.83,1.0,ENE,5.8,-,0.01,Snow,Light Snow,70,2013-04-13 13:19:00
9:30 AM,30.2,28.4,93,29.83,0.8,NE,6.9,-,0.01,Snow,Light Snow,50,2013-04-13 13:30:00
9:39 AM,30.2,28.4,93,29.83,1.0,ENE,8.1,-,0.01,Snow,Light Snow,70,2013-04-13 13:39:00
9:47 AM,30.2,28.4,93,29.84,1.8,NE,5.8,-,0.01,Snow,Light Snow,50,2013-04-13 13:47:00
9:51 AM,30.2,28.4,93,29.84,3.0,NE,6.9,-,0.01,Snow,Light Snow,50,2013-04-13 13:51:00
9:53 AM,30.9,28.0,89,29.87,4.0,ENE,8.1,-,0.01,Snow,Light Snow,60,2013-04-13 13:53:00
10:03 AM,30.2,28.4,93,29.84,7.0,ENE,9.2,-,0.00,Snow,Light Snow,60,2013-04-13 14:03:00
10:53 AM,32.0,28.0,85,29.87,10.0,ENE,6.9,-,0.00,Snow,Light Snow,70,2013-04-13 14:53:00
11:09 AM,32.0,28.4,87,29.84,7.0,ENE,5.8,-,0.00,Snow,Light Snow,70,2013-04-13 15:09:00
11:24 AM,32.0,28.4,87,29.83,4.0,East,6.9,-,0.00,Snow,Light Snow,80,2013-04-13 15:24:00
11:53 AM,33.1,28.9,85,29.86,4.0,ENE,9.2,-,0.01,Snow,Light Snow,60,2013-04-13 15:53:00
12:22 PM,33.8,28.4,81,29.82,2.5,NE,9.2,-,0.00,Snow,Light Snow,50,2013-04-13 16:22:00
12:27 PM,33.8,28.4,81,29.82,3.0,East,10.4,-,0.00,Snow,Light Snow,80,2013-04-13 16:27:00
12:53 PM,34.0,28.9,82,29.85,9.0,ENE,6.9,-,0.00,,Overcast,60,2013-04-13 16:53:00
1:00 PM,33.8,28.4,81,29.82,10.0,ENE,8.1,-,N/A,,Overcast,70,2013-04-13 17:00:00
1:23 PM,33.8,30.2,87,29.82,6.0,NE,6.9,-,0.00,Snow,Light Snow,50,2013-04-13 17:23:00
1:53 PM,35.1,30.9,85,29.84,3.0,ENE,5.8,-,0.00,Snow,Light Snow,60,2013-04-13 17:53:00
2:01 PM,35.6,30.2,81,29.82,9.0,ENE,5.8,-,0.00,,Overcast,70,2013-04-13 18:01:00
2:40 PM,33.8,30.2,87,29.82,2.5,ENE,3.5,-,0.00,Snow,Light Snow,70,2013-04-13 18:40:00
2:53 PM,35.1,30.9,85,29.84,9.0,ENE,6.9,-,0.00,Snow,Light Snow,60,2013-04-13 18:53:00
3:03 PM,35.6,30.2,81,29.81,8.0,ENE,6.9,-,0.00,Snow,Light Snow,60,2013-04-13 19:03:00
3:25 PM,35.6,32.0,87,29.82,8.0,ENE,4.6,-,0.00,,Overcast,60,2013-04-13 19:25:00
3:31 PM,35.6,30.2,81,29.81,10.0,ENE,4.6,-,0.00,,Overcast,70,2013-04-13 19:31:00
3:43 PM,35.6,30.2,81,29.81,10.0,ENE,5.8,-,0.00,,Overcast,60,2013-04-13 19:43:00
3:53 PM,36.0,30.9,82,29.84,10.0,ENE,4.6,-,0.00,,Overcast,60,2013-04-13 19:53:00
4:05 PM,35.6,30.2,81,29.81,10.0,NE,6.9,-,N/A,,Overcast,50,2013-04-13 20:05:00
4:19 PM,35.6,30.2,81,29.81,7.0,ENE,4.6,-,0.00,Snow,Light Snow,70,2013-04-13 20:19:00
4:53 PM,35.1,32.0,89,29.84,8.0,ENE,6.9,-,0.00,Snow,Light Snow,60,2013-04-13 20:53:00
5:17 PM,35.6,32.0,87,29.81,10.0,ENE,6.9,-,0.00,,Overcast,60,2013-04-13 21:17:00
5:31 PM,35.6,30.2,81,29.81,10.0,ENE,10.4,-,0.00,,Overcast,60,2013-04-13 21:31:00
5:53 PM,35.1,32.0,89,29.84,10.0,ENE,8.1,-,0.00,,Overcast,60,2013-04-13 21:53:00
6:26 PM,35.6,32.0,87,29.82,10.0,ENE,5.8,-,N/A,,Overcast,70,2013-04-13 22:26:00
6:53 PM,35.1,32.0,89,29.84,10.0,ENE,6.9,-,N/A,,Overcast,60,2013-04-13 22:53:00
7:39 PM,33.8,30.2,87,29.84,10.0,East,8.1,-,N/A,,Overcast,90,2013-04-13 23:39:00
7:53 PM,33.8,32.0,93,29.85,10.0,East,8.1,-,N/A,,Overcast,90,2013-04-13 23:53:00
8:18 PM,33.8,30.2,87,29.86,2.5,East,4.6,-,0.00,Snow,Light Snow,100,2013-04-14 00:18:00
8:25 PM,33.8,32.0,93,29.86,3.0,East,4.6,-,0.00,Snow,Light Snow,100,2013-04-14 00:25:00
8:35 PM,33.8,32.0,93,29.87,6.0,East,5.8,-,0.00,Snow,Light Snow,100,2013-04-14 00:35:00
8:44 PM,33.8,32.0,93,29.87,9.0,East,4.6,-,0.00,Snow,Light Snow,90,2013-04-14 00:44:00
8:53 PM,33.1,32.0,96,29.90,9.0,East,3.5,-,0.00,Snow,Light Snow,90,2013-04-14 00:53:00
9:10 PM,33.8,32.0,93,29.87,7.0,East,3.5,-,0.00,Snow,Light Snow,90,2013-04-14 01:10:00
9:24 PM,33.8,32.0,93,29.88,2.5,East,4.6,-,0.01,Snow,Light Snow,90,2013-04-14 01:24:00
9:32 PM,33.8,32.0,93,29.88,3.0,East,3.5,-,0.01,Snow,Light Snow,90,2013-04-14 01:32:00
9:43 PM,33.8,32.0,93,29.88,2.0,East,4.6,-,0.01,Snow,Light Snow,90,2013-04-14 01:43:00
9:48 PM,32.0,32.0,100,29.88,2.0,East,3.5,-,0.01,Snow,Light Snow,90,2013-04-14 01:48:00
9:53 PM,32.0,32.0,100,29.91,2.0,East,4.6,-,0.01,Snow,Light Snow,90,2013-04-14 01:53:00
10:04 PM,32.0,30.2,93,29.88,2.0,East,4.6,-,0.00,Snow,Light Snow,100,2013-04-14 02:04:00
10:20 PM,32.0,30.2,93,29.87,1.5,East,4.6,-,0.00,Snow,Light Snow,90,2013-04-14 02:20:00
10:27 PM,32.0,32.0,100,29.87,1.0,East,5.8,-,0.00,Snow,Light Snow,90,2013-04-14 02:27:00
10:34 PM,32.0,30.2,93,29.87,1.5,East,5.8,-,0.00,Snow,Light Snow,90,2013-04-14 02:34:00
10:37 PM,32.0,30.2,93,29.87,2.0,East,4.6,-,0.00,Snow,Light Snow,90,2013-04-14 02:37:00
10:46 PM,32.0,30.2,93,29.87,3.0,East,5.8,-,0.00,Snow,Light Snow,90,2013-04-14 02:46:00
10:53 PM,32.0,30.9,96,29.90,1.5,East,5.8,-,0.00,Snow,Light Snow,90,2013-04-14 02:53:00
10:59 PM,32.0,30.2,93,29.87,0.8,East,5.8,-,0.00,Snow,Light Snow,90,2013-04-14 02:59:00
11:12 PM,32.0,30.2,93,29.87,1.5,East,5.8,-,0.00,Snow,Light Snow,80,2013-04-14 03:12:00
11:19 PM,32.0,30.2,93,29.87,2.0,East,5.8,-,0.00,Snow,Light Snow,80,2013-04-14 03:19:00
11:53 PM,32.0,30.9,96,29.90,1.8,East,5.8,-,0.01,Snow,Light Snow,100,2013-04-14 03:53:00